createdAt,value
2023-01-15T06:08:05.073Z,26.40
2023-01-15T06:10:31.869Z,25.90
2023-01-15T06:12:58.654Z,24.20
2023-01-15T06:15:25.353Z,25.50
2023-01-15T06:17:52.423Z,20.80
2023-01-15T06:20:19.139Z,23.50
2023-01-15T06:22:48.658Z,20.70
2023-01-15T06:25:15.829Z,24.10
2023-01-15T06:27:43.971Z,23.70
2023-01-15T06:30:11.802Z,20.90
2023-01-15T06:32:39.167Z,23.80
2023-01-15T06:35:06.532Z,20.20
2023-01-15T06:37:33.239Z,23.10
2023-01-15T06:40:03.286Z,19.70
2023-01-15T06:42:48.788Z,18.80
2023-01-15T06:45:34.167Z,21.10
2023-01-15T06:48:00.783Z,20.70
2023-01-15T06:50:27.383Z,20.20
2023-01-15T06:52:54.076Z,20.10
2023-01-15T06:55:22.607Z,20.10
2023-01-15T06:57:49.533Z,19.80
2023-01-15T07:00:16.802Z,17.80
2023-01-15T07:02:43.416Z,20.10
2023-01-15T07:05:10.190Z,19.70
2023-01-15T07:07:36.994Z,20.40
2023-01-15T07:10:08.690Z,19.60
2023-01-15T07:12:35.638Z,19.30
2023-01-15T07:15:02.275Z,19.90
2023-01-15T07:17:29.558Z,19.30
2023-01-15T07:19:56.231Z,18.80
2023-01-15T07:22:23.007Z,20.60
2023-01-15T07:24:50.665Z,20.40
2023-01-15T07:27:17.355Z,17.90
2023-01-15T07:29:44.131Z,20.20
2023-01-15T07:32:11.342Z,18.80
2023-01-15T07:34:38.675Z,19.50
2023-01-15T07:37:05.473Z,20.40
2023-01-15T07:39:32.115Z,18.20
2023-01-15T07:42:18.407Z,16.40
2023-01-15T07:45:03.992Z,19.90
2023-01-15T14:18:57.196Z,25.60
2023-01-15T14:21:32.763Z,21.10
2023-01-15T14:24:37.544Z,23.50
2023-01-15T14:27:37.413Z,23.40
2023-01-15T14:30:13.661Z,22.30
2023-01-15T14:32:48.636Z,20.40
2023-01-15T14:35:20.416Z,21.40
2023-01-15T14:37:58.334Z,25.50
2023-01-15T14:40:30.830Z,19.60
2023-01-15T14:43:04.105Z,18.30
2023-01-15T14:45:40.016Z,19.00
2023-01-15T14:50:44.781Z,15.80
2023-01-15T14:53:14.493Z,19.90
2023-01-15T14:56:02.872Z,18.50
2023-01-15T14:58:37.892Z,19.10
2023-01-15T15:01:20.301Z,19.00
2023-01-15T15:04:15.034Z,19.20
2023-01-15T15:07:06.899Z,16.30
2023-01-15T15:09:44.043Z,18.20
2023-01-15T15:12:19.917Z,14.60
2023-01-15T15:15:07.112Z,13.90
2023-01-15T15:17:54.531Z,15.40
2023-01-15T15:20:28.796Z,16.40
2023-01-15T15:22:57.537Z,13.50
2023-01-15T15:25:25.293Z,14.90
2023-01-15T15:28:03.003Z,14.40
2023-01-15T15:30:31.231Z,17.60
2023-01-15T15:32:59.267Z,16.10
2023-01-15T15:35:29.682Z,17.00
2023-01-15T15:37:58.118Z,17.70
2023-01-15T15:40:33.455Z,16.00
2023-01-15T15:43:21.446Z,16.30
2023-01-15T15:46:14.123Z,15.90
2023-01-15T15:48:52.502Z,18.00
2023-01-15T20:24:58.212Z,16.40
2023-01-15T20:27:25.528Z,17.20
2023-01-15T20:29:58.619Z,14.10
2023-01-15T20:32:25.769Z,9.70
2023-01-15T20:34:52.923Z,13.20
2023-01-15T20:37:20.085Z,14.70
2023-01-15T20:39:47.034Z,12.10
2023-01-15T20:42:32.692Z,9.50
2023-01-15T20:45:03.201Z,13.00
2023-01-15T20:47:49.334Z,12.10
2023-01-15T20:50:17.646Z,10.10
2023-01-15T20:52:45.924Z,11.20
2023-01-15T20:55:13.060Z,11.30
2023-01-15T20:57:40.486Z,11.70
2023-01-15T21:00:13.729Z,12.30
2023-01-15T21:02:40.601Z,15.60
2023-01-15T21:05:08.403Z,14.30
2023-01-15T21:07:36.193Z,13.70
2023-01-15T21:10:04.301Z,13.60
2023-01-15T21:12:31.114Z,10.10
2023-01-15T21:14:57.932Z,8.70
2023-01-15T21:17:24.875Z,7.70
2023-01-15T21:19:51.701Z,8.00
2023-01-15T21:22:18.536Z,9.20
2023-01-15T21:24:46.823Z,8.30
2023-01-15T21:27:14.663Z,8.20
2023-01-15T21:29:41.470Z,8.90
2023-01-15T21:32:08.400Z,8.60
2023-01-15T21:34:35.447Z,10.10
2023-01-15T21:37:02.352Z,8.00
2023-01-15T21:39:29.449Z,7.80
2023-01-15T21:42:15.178Z,7.80
2023-01-15T21:44:45.836Z,7.80
2023-01-15T21:47:14.187Z,9.00
2023-01-15T21:49:41.715Z,7.70
2023-01-15T21:52:19.396Z,9.70
2023-01-15T21:55:07.497Z,11.00
2023-01-15T21:57:34.470Z,9.60
2023-01-15T22:00:01.248Z,10.60
2023-01-15T22:02:30.008Z,13.10
2023-01-15T22:04:57.024Z,12.70
2023-01-15T22:07:23.861Z,11.20
2023-01-15T22:09:51.083Z,9.20
2023-01-15T22:12:17.943Z,9.40
2023-01-15T22:14:44.755Z,11.10
2023-01-15T22:17:11.729Z,13.40
2023-01-15T22:19:38.551Z,10.50
2023-01-15T22:22:10.026Z,11.20
2023-01-15T22:24:40.474Z,13.00
2023-01-15T22:27:08.293Z,11.80
2023-01-15T22:29:39.524Z,13.30
2023-01-15T22:32:10.936Z,12.40
2023-01-15T22:34:37.827Z,12.40
2023-01-15T22:37:04.652Z,13.50
2023-01-15T22:39:32.137Z,14.00
2023-01-15T22:42:17.766Z,13.30
2023-01-15T22:44:45.295Z,15.60
2023-01-15T22:47:12.556Z,15.70
2023-01-15T22:49:39.498Z,13.70
2023-01-15T22:52:06.308Z,12.90
2023-01-15T22:54:33.147Z,16.20
2023-01-15T22:57:00.045Z,13.00
2023-01-15T22:59:26.863Z,12.10
2023-01-15T23:01:54.006Z,12.30
2023-01-15T23:04:22.749Z,12.60
2023-01-15T23:06:51.599Z,15.30
2023-01-15T23:09:19.220Z,14.40
2023-01-15T23:11:46.425Z,16.90
2023-01-15T23:14:15.219Z,14.40
2023-01-15T23:16:42.807Z,16.90
2023-01-15T23:19:09.602Z,15.20
2023-01-15T23:21:36.499Z,12.80
2023-01-15T23:24:03.631Z,15.90
2023-01-15T23:26:31.759Z,17.20
2023-01-15T23:28:58.955Z,16.80
2023-01-15T23:31:26.194Z,15.60
2023-01-15T23:33:53.187Z,15.40
2023-01-15T23:36:19.999Z,17.90
2023-01-15T23:38:46.908Z,15.70
2023-01-15T23:41:15.669Z,16.30
2023-01-15T23:44:01.782Z,14.10
2023-01-15T23:46:35.696Z,19.10
2023-01-15T23:49:07.202Z,16.60
2023-01-15T23:51:34.098Z,16.90
2023-01-15T23:54:01.116Z,17.30
2023-01-15T23:56:31.380Z,19.50
2023-01-15T23:58:58.421Z,12.90
